createdAt,value
2022-08-17T00:00:05.753Z,18.23
2022-08-17T00:02:32.854Z,17.77
2022-08-17T00:05:08.012Z,17.40
2022-08-17T00:07:34.767Z,18.30
2022-08-17T00:10:01.481Z,18.20
2022-08-17T00:12:41.240Z,17.20
2022-08-17T00:15:13.462Z,18.65
2022-08-17T00:17:42.459Z,19.08
2022-08-17T00:20:12.349Z,17.95
2022-08-17T00:22:39.168Z,16.70
2022-08-17T00:25:10.364Z,19.92
2022-08-17T00:27:37.098Z,17.95
2022-08-17T00:30:08.766Z,17.38
2022-08-17T00:33:14.543Z,17.23
2022-08-17T00:35:32.302Z,17.92
2022-08-17T00:37:58.997Z,17.08
2022-08-17T00:40:26.017Z,18.17
2022-08-17T00:42:53.502Z,17.48
2022-08-17T00:45:21.127Z,18.98
2022-08-17T00:47:49.595Z,19.00
2022-08-17T00:50:19.772Z,17.15
2022-08-17T00:52:55.385Z,17.40
2022-08-17T00:55:24.147Z,16.75
2022-08-17T00:57:55.585Z,17.48
2022-08-17T01:00:28.160Z,18.13
2022-08-17T01:03:06.259Z,18.05
2022-08-17T01:05:34.800Z,18.38
2022-08-17T01:08:02.587Z,17.55
2022-08-17T01:10:58.765Z,17.42
2022-08-17T01:13:39.830Z,17.95
2022-08-17T01:16:24.397Z,17.13
2022-08-17T01:18:54.258Z,17.60
2022-08-17T01:21:47.111Z,15.55
2022-08-17T01:24:14.235Z,14.77
2022-08-17T01:26:45.482Z,14.60
2022-08-17T01:29:12.866Z,14.85
2022-08-17T01:31:44.394Z,15.75
2022-08-17T01:34:13.894Z,14.48
2022-08-17T01:36:43.134Z,15.75
2022-08-17T01:39:16.168Z,15.90
2022-08-17T01:41:47.186Z,15.52
2022-08-17T01:44:15.688Z,15.50
2022-08-17T01:46:42.396Z,15.32
2022-08-17T01:49:11.439Z,16.90
2022-08-17T01:51:39.398Z,16.35
2022-08-17T01:54:10.812Z,16.65
2022-08-17T01:56:41.830Z,16.10
2022-08-17T01:59:08.874Z,16.17
2022-08-17T02:01:37.018Z,16.30
2022-08-17T02:04:06.534Z,16.17
2022-08-17T02:06:45.274Z,17.00
2022-08-17T02:09:25.666Z,17.58
2022-08-17T02:11:57.098Z,17.15
2022-08-17T02:14:24.940Z,16.50
2022-08-17T02:16:52.193Z,17.17
2022-08-17T02:19:19.679Z,16.55
2022-08-17T02:21:49.674Z,16.70
2022-08-17T02:25:00.131Z,16.92
2022-08-17T02:27:10.429Z,18.05
2022-08-17T02:29:37.524Z,18.55
2022-08-17T02:32:05.000Z,18.83
2022-08-17T02:34:32.501Z,19.08
2022-08-17T02:36:59.521Z,19.00
2022-08-17T02:39:26.252Z,20.58
2022-08-17T02:42:01.637Z,20.33
2022-08-17T02:44:39.023Z,19.85
2022-08-17T02:47:08.333Z,19.73
2022-08-17T02:49:35.300Z,20.98
2022-08-17T02:52:06.823Z,21.45
2022-08-17T02:54:40.053Z,19.45
2022-08-17T02:57:07.879Z,19.33
2022-08-17T02:59:34.897Z,19.00
2022-08-17T03:02:03.891Z,18.67
2022-08-17T03:04:31.220Z,21.40
2022-08-17T03:07:02.152Z,20.23
2022-08-17T03:09:28.867Z,19.20
2022-08-17T03:11:56.133Z,19.15
2022-08-17T03:14:26.208Z,19.70
2022-08-17T03:16:53.185Z,20.58
2022-08-17T03:19:19.873Z,19.38
2022-08-17T03:21:46.557Z,19.33
2022-08-17T03:24:21.832Z,21.13
2022-08-17T03:26:55.859Z,20.45
2022-08-17T03:29:22.661Z,21.70
2022-08-17T03:31:50.276Z,20.38
2022-08-17T03:34:17.879Z,19.40
2022-08-17T03:36:44.600Z,19.63
2022-08-17T03:39:11.312Z,21.73
2022-08-17T03:41:43.137Z,19.73
2022-08-17T03:44:10.012Z,20.10
2022-08-17T03:46:55.318Z,19.38
2022-08-17T03:49:40.823Z,19.83
2022-08-17T03:52:26.365Z,19.50
2022-08-17T03:55:11.947Z,19.80
2022-08-17T03:57:38.746Z,19.42
2022-08-17T04:00:06.187Z,19.02
2022-08-17T04:02:34.125Z,18.17
2022-08-17T04:05:01.458Z,19.23
2022-08-17T04:07:30.364Z,21.60
2022-08-17T04:09:58.173Z,18.98
2022-08-17T04:12:26.435Z,19.98
2022-08-17T04:14:55.009Z,19.10
2022-08-17T04:17:24.540Z,18.90
2022-08-17T04:19:51.848Z,19.48
2022-08-17T04:22:30.869Z,18.60
2022-08-17T04:25:01.625Z,20.17
2022-08-17T04:27:28.333Z,18.52
2022-08-17T04:29:56.079Z,19.10
2022-08-17T04:33:02.297Z,19.20
2022-08-17T04:35:11.365Z,19.35
2022-08-17T04:37:38.046Z,17.48
2022-08-17T04:40:25.962Z,18.67
2022-08-17T04:43:02.069Z,19.58
2022-08-17T04:45:32.008Z,19.00
2022-08-17T04:50:25.543Z,18.45
2022-08-17T04:52:52.283Z,18.75
2022-08-17T04:55:19.245Z,18.10
2022-08-17T04:57:46.014Z,18.67
2022-08-17T05:00:13.265Z,16.60
2022-08-17T05:02:49.726Z,16.98
2022-08-17T05:05:28.821Z,17.50
2022-08-17T05:07:59.396Z,17.80
2022-08-17T05:10:29.405Z,19.23
2022-08-17T05:15:29.001Z,16.30
2022-08-17T05:18:00.555Z,19.17
2022-08-17T05:20:27.999Z,15.95
2022-08-17T05:22:57.426Z,15.18
2022-08-17T05:25:30.009Z,16.08
2022-08-17T05:28:00.166Z,16.13
2022-08-17T05:30:28.924Z,14.73
2022-08-17T05:32:55.651Z,16.27
2022-08-17T05:35:23.454Z,16.20
2022-08-17T05:37:50.794Z,13.48
2022-08-17T05:40:18.874Z,15.20
2022-08-17T05:42:45.533Z,14.75
2022-08-17T05:45:12.641Z,15.07
2022-08-17T05:47:39.995Z,14.48
2022-08-17T05:50:09.671Z,13.30
2022-08-17T05:58:14.083Z,13.93
2022-08-17T06:01:01.199Z,13.40
2022-08-17T06:03:56.595Z,13.40
2022-08-17T06:06:45.056Z,13.93
2022-08-17T06:09:40.284Z,13.77
2022-08-17T06:12:38.018Z,12.82
2022-08-17T06:15:30.758Z,13.52
2022-08-17T06:18:04.816Z,13.98
2022-08-17T06:20:50.358Z,13.05
2022-08-17T06:23:34.954Z,14.10
2022-08-17T06:26:12.831Z,12.77
2022-08-17T06:28:49.245Z,13.75
2022-08-17T06:31:22.263Z,13.75
2022-08-17T06:33:50.113Z,13.55
2022-08-17T06:36:35.643Z,13.75
2022-08-17T06:39:34.164Z,12.45
2022-08-17T06:42:54.791Z,11.50
2022-08-17T06:45:17.829Z,12.60
2022-08-17T06:48:04.497Z,12.23
2022-08-17T06:50:49.193Z,12.43
2022-08-17T06:53:34.543Z,12.07
2022-08-17T06:56:12.852Z,11.75
2022-08-17T06:58:43.397Z,13.18
2022-08-17T07:01:15.847Z,11.32
2022-08-17T07:04:11.746Z,12.07
2022-08-17T07:06:50.490Z,12.18
2022-08-17T07:09:26.197Z,12.35
2022-08-17T07:12:04.326Z,12.18
2022-08-17T07:14:39.410Z,10.90
2022-08-17T07:17:15.457Z,11.07
2022-08-17T07:19:45.956Z,11.90
2022-08-17T07:22:54.785Z,11.88
2022-08-17T07:25:27.567Z,11.52
2022-08-17T07:27:59.675Z,11.50
2022-08-17T07:30:37.134Z,12.45
2022-08-17T07:33:26.599Z,11.90
2022-08-17T07:35:53.944Z,11.80
2022-08-17T07:38:26.988Z,11.10
2022-08-17T07:41:03.212Z,12.27
2022-08-17T07:43:35.519Z,11.75
2022-08-17T07:46:39.461Z,11.95
2022-08-17T07:49:08.873Z,11.90
2022-08-17T07:51:44.102Z,11.82
2022-08-17T07:54:22.346Z,11.20
2022-08-17T07:57:27.927Z,11.50
2022-08-17T08:00:03.048Z,11.68
2022-08-17T08:02:40.271Z,11.38
2022-08-17T08:05:30.842Z,11.00
2022-08-17T08:08:28.198Z,11.75
2022-08-17T08:11:05.304Z,11.40
2022-08-17T08:13:33.279Z,10.90
2022-08-17T08:16:24.566Z,10.70
2022-08-17T08:19:01.504Z,10.57
2022-08-17T08:22:11.349Z,10.98
2022-08-17T08:24:43.921Z,10.52
2022-08-17T08:27:42.983Z,11.63
2022-08-17T08:30:14.545Z,10.25
2022-08-17T08:33:08.462Z,9.98
2022-08-17T08:35:44.520Z,12.45
2022-08-17T08:38:30.851Z,11.00
2022-08-17T08:41:19.380Z,10.38
2022-08-17T08:43:53.423Z,10.13
2022-08-17T08:46:52.308Z,11.43
2022-08-17T08:49:59.505Z,10.00
2022-08-17T08:53:03.860Z,11.18
2022-08-17T08:55:47.757Z,11.02
2022-08-17T08:58:43.861Z,10.23
2022-08-17T09:01:48.139Z,10.02
2022-08-17T09:04:26.561Z,10.95
2022-08-17T09:07:18.886Z,10.23
2022-08-17T09:10:13.654Z,11.27
2022-08-17T09:13:09.375Z,10.85
2022-08-17T09:15:56.028Z,11.02
2022-08-17T09:19:01.185Z,10.65
2022-08-17T09:21:48.094Z,10.55
2022-08-17T09:24:24.201Z,10.05
2022-08-17T09:27:03.350Z,10.15
2022-08-17T09:29:34.990Z,10.40
2022-08-17T09:32:23.955Z,9.93
2022-08-17T09:34:54.902Z,9.48
2022-08-17T09:37:47.191Z,10.27
2022-08-17T09:40:32.908Z,9.70
2022-08-17T09:43:31.586Z,11.38
2022-08-17T09:46:02.617Z,11.27
2022-08-17T09:48:39.683Z,10.90
2022-08-17T09:51:22.194Z,9.90
2022-08-17T09:53:50.052Z,10.43
2022-08-17T09:57:05.973Z,9.73
2022-08-17T09:59:47.496Z,10.48
2022-08-17T10:02:58.470Z,10.10
2022-08-17T10:05:34.652Z,9.98
2022-08-17T10:08:21.685Z,10.20
2022-08-17T10:11:45.733Z,9.75
2022-08-17T10:14:43.555Z,10.13
2022-08-17T10:17:20.414Z,9.55
2022-08-17T10:20:02.074Z,9.80
2022-08-17T10:23:09.827Z,9.90
2022-08-17T10:26:01.132Z,10.23
2022-08-17T10:28:36.095Z,10.30
2022-08-17T10:31:33.141Z,9.75
2022-08-17T10:36:38.164Z,9.30
2022-08-17T10:39:10.824Z,9.85
2022-08-17T10:41:45.329Z,9.25
2022-08-17T10:44:39.217Z,10.13
2022-08-17T10:47:06.453Z,9.85
2022-08-17T10:49:47.684Z,9.93
2022-08-17T10:52:20.992Z,9.13
2022-08-17T10:54:58.244Z,9.07
2022-08-17T10:57:37.249Z,9.73
2022-08-17T11:00:03.993Z,9.18
2022-08-17T11:02:41.278Z,9.15
2022-08-17T11:05:20.186Z,10.95
2022-08-17T11:08:13.395Z,10.55
2022-08-17T11:10:59.105Z,10.48
2022-08-17T11:13:58.040Z,10.27
2022-08-17T11:16:42.513Z,10.27
2022-08-17T11:19:38.401Z,10.75
2022-08-17T11:22:38.792Z,10.45
2022-08-17T11:25:19.988Z,10.63
2022-08-17T11:27:53.782Z,9.32
2022-08-17T11:30:46.984Z,9.70
2022-08-17T11:33:33.969Z,9.93
2022-08-17T11:36:26.597Z,9.55
2022-08-17T11:41:31.826Z,10.55
2022-08-17T11:44:42.931Z,11.23
2022-08-17T11:47:38.462Z,12.20
2022-08-17T11:50:35.663Z,13.07
2022-08-17T11:53:02.702Z,13.48
2022-08-17T11:55:36.414Z,14.15
2022-08-17T11:58:16.283Z,13.90
2022-08-17T12:00:46.010Z,14.43
2022-08-17T12:05:53.489Z,13.65
2022-08-17T12:08:21.743Z,14.43
2022-08-17T12:11:57.796Z,13.57
2022-08-17T12:15:05.916Z,12.77
2022-08-17T12:17:52.274Z,12.18
2022-08-17T12:20:24.127Z,12.25
2022-08-17T12:22:57.636Z,11.10
2022-08-17T12:25:33.035Z,11.88
2022-08-17T12:28:06.238Z,10.82
2022-08-17T12:30:36.183Z,10.38
2022-08-17T12:33:03.216Z,10.27
2022-08-17T12:35:34.604Z,10.93
2022-08-17T12:38:03.029Z,9.82
2022-08-17T12:40:32.403Z,10.55
2022-08-17T12:43:07.766Z,10.43
2022-08-17T12:45:39.694Z,11.25
2022-08-17T12:48:11.325Z,10.55
2022-08-17T12:50:44.836Z,11.48
2022-08-17T12:53:17.337Z,11.45
2022-08-17T12:55:44.601Z,12.63
2022-08-17T12:58:14.585Z,11.02
2022-08-17T13:00:48.687Z,11.65
2022-08-17T13:03:21.042Z,11.38
2022-08-17T13:06:09.509Z,12.30
2022-08-17T13:08:43.514Z,12.70
2022-08-17T13:11:20.110Z,12.23
2022-08-17T13:13:54.194Z,11.75
2022-08-17T13:16:30.791Z,13.00
2022-08-17T13:19:15.972Z,12.65
2022-08-17T13:21:49.837Z,12.75
2022-08-17T13:24:29.199Z,12.43
2022-08-17T13:27:08.020Z,12.02
2022-08-17T13:29:39.832Z,11.93
2022-08-17T13:32:13.596Z,11.05
2022-08-17T13:35:12.131Z,10.80
2022-08-17T13:37:36.620Z,11.35
2022-08-17T13:40:09.389Z,12.55
2022-08-17T13:42:51.499Z,11.95
2022-08-17T13:45:36.079Z,12.40
2022-08-17T13:48:10.989Z,12.05
2022-08-17T13:50:47.943Z,12.55
2022-08-17T13:53:51.213Z,11.82
2022-08-17T13:57:04.962Z,13.77
2022-08-17T13:59:53.380Z,12.10
2022-08-17T14:02:22.572Z,12.25
2022-08-17T14:04:53.316Z,12.65
2022-08-17T14:07:19.954Z,12.25
2022-08-17T14:09:54.826Z,12.38
2022-08-17T14:12:27.385Z,11.20
2022-08-17T14:14:56.359Z,12.05
2022-08-17T14:17:25.071Z,11.07
2022-08-17T14:19:52.580Z,10.85
2022-08-17T14:22:25.688Z,10.38
2022-08-17T14:24:52.893Z,10.25
2022-08-17T14:27:20.768Z,11.68
2022-08-17T14:29:48.312Z,10.75
2022-08-17T14:32:23.981Z,10.52
2022-08-17T14:34:51.623Z,11.25
2022-08-17T14:37:20.129Z,10.90
2022-08-17T14:39:46.874Z,12.90
2022-08-17T14:42:15.082Z,11.18
2022-08-17T14:44:41.848Z,11.48
2022-08-17T14:47:14.895Z,10.80
2022-08-17T14:49:42.207Z,10.90
2022-08-17T14:52:11.851Z,10.85
2022-08-17T14:57:24.688Z,9.75
2022-08-17T15:00:10.068Z,10.30
2022-08-17T15:02:53.587Z,10.23
2022-08-17T15:05:22.683Z,10.07
2022-08-17T15:07:49.722Z,11.07
2022-08-17T15:10:17.620Z,10.45
2022-08-17T15:12:44.450Z,10.23
2022-08-17T15:15:14.009Z,10.38
2022-08-17T15:17:46.047Z,10.43
2022-08-17T15:20:28.326Z,10.20
2022-08-17T15:22:56.099Z,10.35
2022-08-17T15:25:24.949Z,10.32
2022-08-17T15:27:52.526Z,10.45
2022-08-17T15:30:20.430Z,8.85
2022-08-17T15:32:54.033Z,8.40
2022-08-17T15:35:27.297Z,9.20
2022-08-17T15:37:56.625Z,9.13
2022-08-17T15:40:26.056Z,8.63
2022-08-17T15:42:52.951Z,8.57
2022-08-17T15:45:25.353Z,8.80
2022-08-17T15:47:53.276Z,8.45
2022-08-17T15:50:20.079Z,8.18
2022-08-17T15:52:47.543Z,8.23
2022-08-17T15:55:15.520Z,8.45
2022-08-17T15:57:42.233Z,7.85
2022-08-17T16:00:11.314Z,9.07
2022-08-17T16:03:15.106Z,7.63
2022-08-17T16:05:28.717Z,7.95
2022-08-17T16:07:58.565Z,8.02
2022-08-17T16:10:35.629Z,8.10
2022-08-17T16:13:04.001Z,8.15
2022-08-17T16:15:33.845Z,8.40
2022-08-17T16:18:00.608Z,8.52
2022-08-17T16:20:27.883Z,8.40
2022-08-17T16:22:55.167Z,8.10
2022-08-17T16:25:50.376Z,8.38
2022-08-17T16:28:17.122Z,7.43
2022-08-17T16:30:45.317Z,8.20
2022-08-17T16:33:13.548Z,7.63
2022-08-17T16:35:42.018Z,8.20
2022-08-17T16:38:11.047Z,7.63
2022-08-17T16:40:38.078Z,8.23
2022-08-17T16:43:10.450Z,8.43
2022-08-17T16:45:40.295Z,8.13
2022-08-17T16:48:09.284Z,8.10
2022-08-17T16:50:37.246Z,7.43
2022-08-17T16:53:10.587Z,8.23
2022-08-17T16:55:38.280Z,7.45
2022-08-17T16:58:06.550Z,8.02
2022-08-17T17:00:33.738Z,7.50
2022-08-17T17:03:19.782Z,7.55
2022-08-17T17:06:08.152Z,7.55
2022-08-17T17:08:48.493Z,8.02
2022-08-17T17:11:40.303Z,7.60
2022-08-17T17:14:15.577Z,7.10
2022-08-17T17:16:57.737Z,8.05
2022-08-17T17:19:43.038Z,8.13
2022-08-17T17:22:25.580Z,8.10
2022-08-17T17:25:04.419Z,8.52
2022-08-17T17:27:37.469Z,8.33
2022-08-17T17:30:42.608Z,7.75
2022-08-17T17:33:23.410Z,8.05
2022-08-17T17:36:13.028Z,8.30
2022-08-17T17:38:49.141Z,8.70
2022-08-17T17:41:26.323Z,8.48
2022-08-17T17:44:07.469Z,8.93
2022-08-17T17:46:38.444Z,8.77
2022-08-17T17:49:06.084Z,9.32
2022-08-17T17:52:19.460Z,9.75
2022-08-17T17:55:17.317Z,9.27
2022-08-17T17:58:00.742Z,9.00
2022-08-17T18:00:48.982Z,9.48
2022-08-17T18:03:15.665Z,10.32
2022-08-17T18:05:54.670Z,9.98
2022-08-17T18:08:38.476Z,9.60
2022-08-17T18:11:24.156Z,10.15
2022-08-17T18:14:22.979Z,10.27
2022-08-17T18:16:57.967Z,9.98
2022-08-17T18:19:27.017Z,10.32
2022-08-17T18:22:22.906Z,10.87
2022-08-17T18:24:55.917Z,10.18
2022-08-17T18:27:25.877Z,10.32
2022-08-17T18:32:37.725Z,10.52
2022-08-17T18:35:10.310Z,11.73
2022-08-17T18:37:37.159Z,12.40
2022-08-17T18:40:21.732Z,16.92
2022-08-17T18:43:06.429Z,18.77
2022-08-17T18:45:35.316Z,17.63
2022-08-17T18:48:02.533Z,15.85
2022-08-17T18:50:41.408Z,19.13
2022-08-17T18:53:36.485Z,19.05
2022-08-17T18:56:24.314Z,19.77
2022-08-17T18:59:01.521Z,20.55
2022-08-17T19:01:42.071Z,19.67
2022-08-17T19:04:36.252Z,19.58
2022-08-17T19:07:24.536Z,18.38
2022-08-17T19:10:16.494Z,18.65
2022-08-17T19:13:00.227Z,18.90
2022-08-17T19:15:37.922Z,18.95
2022-08-17T19:18:17.906Z,17.20
2022-08-17T19:23:35.959Z,19.13
2022-08-17T19:26:51.287Z,19.95
2022-08-17T19:29:03.904Z,19.67
2022-08-17T19:31:32.208Z,19.48
2022-08-17T19:34:01.564Z,20.30
2022-08-17T19:36:49.106Z,19.88
2022-08-17T19:39:42.951Z,19.27
2022-08-17T19:42:23.291Z,19.88
2022-08-17T19:45:08.406Z,20.38
2022-08-17T19:48:03.033Z,21.48
2022-08-17T19:51:08.392Z,19.67
2022-08-17T19:54:06.031Z,20.10
2022-08-17T19:56:55.681Z,21.73
2022-08-17T20:00:03.006Z,20.33
2022-08-17T20:02:38.564Z,21.60
2022-08-17T20:05:13.111Z,20.60
2022-08-17T20:07:46.177Z,22.90
2022-08-17T20:10:47.286Z,23.75
2022-08-17T20:13:33.430Z,21.42
2022-08-17T20:16:02.560Z,22.63
2022-08-17T20:18:50.223Z,21.23
2022-08-17T20:21:26.428Z,20.90
2022-08-17T20:24:03.470Z,21.33
2022-08-17T20:26:58.959Z,20.15
2022-08-17T20:29:37.001Z,20.70
2022-08-17T20:32:17.016Z,20.83
2022-08-17T20:34:48.724Z,21.67
2022-08-17T20:37:15.598Z,19.15
2022-08-17T20:40:05.975Z,22.40
2022-08-17T20:42:35.295Z,20.75
2022-08-17T20:45:22.063Z,19.77
2022-08-17T20:48:18.615Z,21.10
2022-08-17T20:50:45.276Z,21.80
2022-08-17T20:53:48.275Z,20.63
2022-08-17T20:56:49.182Z,20.13
2022-08-17T20:59:31.787Z,19.55
2022-08-17T21:02:18.716Z,21.45
2022-08-17T21:04:54.935Z,21.80
2022-08-17T21:07:43.610Z,21.63
2022-08-17T21:10:13.260Z,22.75
2022-08-17T21:12:50.096Z,21.73
2022-08-17T21:15:54.195Z,21.65
2022-08-17T21:18:40.404Z,22.02
2022-08-17T21:21:31.417Z,22.00
2022-08-17T21:24:36.075Z,21.83
2022-08-17T21:27:12.338Z,22.95
2022-08-17T21:29:54.275Z,22.27
2022-08-17T21:32:30.132Z,23.52
2022-08-17T21:35:07.195Z,21.35
2022-08-17T21:37:46.184Z,22.02
2022-08-17T21:40:13.011Z,22.70
2022-08-17T21:42:47.735Z,22.42
2022-08-17T21:45:31.937Z,22.40
2022-08-17T21:48:19.634Z,21.85
2022-08-17T21:51:10.499Z,22.83
2022-08-17T21:53:45.208Z,20.45
2022-08-17T21:56:20.573Z,21.30
2022-08-17T21:59:01.864Z,21.80
2022-08-17T22:01:34.907Z,22.38
2022-08-17T22:04:11.228Z,22.75
2022-08-17T22:06:41.683Z,24.17
2022-08-17T22:09:15.897Z,24.48
2022-08-17T22:11:59.561Z,22.20
2022-08-17T22:14:53.244Z,23.05
2022-08-17T22:17:26.676Z,23.38
2022-08-17T22:19:58.576Z,21.80
2022-08-17T22:22:30.571Z,22.67
2022-08-17T22:25:05.330Z,21.40
2022-08-17T22:27:54.792Z,22.85
2022-08-17T22:30:42.963Z,21.33
2022-08-17T22:33:35.153Z,20.35
2022-08-17T22:36:33.680Z,21.10
2022-08-17T22:39:23.072Z,20.88
2022-08-17T22:41:59.009Z,21.88
2022-08-17T22:44:37.704Z,19.77
2022-08-17T22:47:06.711Z,20.23
2022-08-17T22:49:52.995Z,20.05
2022-08-17T22:53:01.366Z,20.67
2022-08-17T22:55:49.775Z,21.38
2022-08-17T22:58:38.373Z,20.85
2022-08-17T23:01:28.146Z,19.63
2022-08-17T23:03:56.065Z,20.35
2022-08-17T23:06:24.445Z,20.40
2022-08-17T23:08:56.609Z,19.98
2022-08-17T23:11:42.976Z,20.67
2022-08-17T23:14:18.478Z,21.23
2022-08-17T23:16:45.495Z,19.45
2022-08-17T23:19:16.105Z,20.55
2022-08-17T23:21:46.688Z,21.35
2022-08-17T23:24:23.553Z,19.83
2022-08-17T23:26:50.659Z,19.98
2022-08-17T23:29:20.143Z,20.30
2022-08-17T23:31:49.362Z,19.80
2022-08-17T23:34:18.356Z,20.53
2022-08-17T23:36:53.931Z,21.75
2022-08-17T23:39:24.405Z,20.35
2022-08-17T23:41:55.346Z,21.80
2022-08-17T23:44:24.997Z,22.00
2022-08-17T23:46:53.483Z,20.00
2022-08-17T23:49:20.960Z,21.50
2022-08-17T23:51:48.867Z,20.55
2022-08-17T23:54:33.513Z,19.75
2022-08-17T23:57:05.156Z,20.08
2022-08-17T23:59:33.857Z,20.02
